This is the latest recevied weather packets stored in our database for station/object CX2SA-13. If no packets are shown the sender has not sent any weather packets the latest 10 day(s).
| Time | Temp. | Humidity | Pressure | Rain* | Wind** | Luminosity | Snow |
|---|---|---|---|---|---|---|---|
| 1778191186 | 12.78° C | 97% | 1003 hPa | 41.66 mm | - | - | - |
| 1778190285 | 13.33° C | 96% | 1003 hPa | 41.15 mm | - | - | - |
| 1778189385 | 13.33° C | 96% | 1005 hPa | 40.39 mm | - | - | - |
| 1778188484 | 13.33° C | 96% | 1004.7 hPa | 40.39 mm | - | - | - |
| 1778187584 | 13.33° C | 96% | 1004.7 hPa | 39.88 mm | - | - | - |
| 1778186685 | 13.33° C | 96% | 1004.7 hPa | 39.88 mm | - | - | - |
| 1778185784 | 13.33° C | 95% | 1003 hPa | 38.61 mm | - | - | - |
| 1778184884 | 14.44° C | 93% | 1004.4 hPa | 37.34 mm | - | - | - |
| 1778183985 | 16.11° C | 81% | 1003 hPa | 36.07 mm | - | - | - |
| 1778183084 | 16.67° C | 85% | 1000 hPa | 36.07 mm | - | - | - |
| 1778182184 | 16.67° C | 85% | 1000 hPa | 36.07 mm | - | - | - |
| 1778181285 | 17.22° C | 83% | 998.9 hPa | 36.07 mm | - | - | - |
| 1778180384 | 17.78° C | 85% | 998.9 hPa | 36.07 mm | - | - | - |
| 1778179485 | 18.33° C | 86% | 998.9 hPa | 36.07 mm | - | - | - |
| 1778178586 | 18.89° C | 86% | 998.3 hPa | 36.07 mm | - | - | - |
| 1778177684 | 18.33° C | 90% | 998.3 hPa | 36.07 mm | - | - | - |
| 1778176785 | 17.78° C | 92% | 997.6 hPa | 36.07 mm | - | - | - |
| 1778175886 | 17.22° C | 96% | 1000 hPa | 35.56 mm | - | - | - |
| 1778174984 | 17.22° C | 96% | 998.3 hPa | 35.56 mm | - | - | - |
| 1778174085 | 17.22° C | 96% | 998.9 hPa | 35.56 mm | - | - | - |
| 1778173184 | 17.22° C | 96% | 997.6 hPa | 35.56 mm | - | - | - |
| 1778172285 | 17.78° C | 96% | 997.6 hPa | 35.56 mm | - | - | - |
| 1778171385 | 17.78° C | 97% | 998.9 hPa | 35.56 mm | - | - | - |
| 1778170484 | 17.78° C | 97% | 998.6 hPa | 35.56 mm | - | - | - |
| 1778169585 | 17.78° C | 98% | 997.2 hPa | 35.31 mm | - | - | - |
* Rain since midnight (hover to see other rain measurements)
** Current wind speed in m/s (hover to see current wind gust speed)